Etusivu
METAR-TAF:

METAR-TAF

Lentoasemat :

Kit Carson County Airport

Burlington, Colorado, Yhdysvallat

Leveyspiiri: 39-14-32N, Pituuspiiri: 102-16-58W, korkeus merenpinnasta: 1285 m

Tämänhetkinen sää

Tämä raportti tehtiin 39 minuuttia sitten, kello 14.53 UTC
Tuuli 21 kn etelästä puuskistuen 29 kn:hen
Lämpötila 22°C
Kosteus 78%
Ilmanpaine 1024 hPa
Näkyvyys: 16.1 km
selkeää

METAR: KITR 201453Z AUTO 18021G29KT 10SM CLR 22/18 A3024 RMK AO2 PK WND 17029/1445 SLP196 T02220178 51004

Aika: 09:32 (15:32 UTC)


TAF: puuttuu

Säähavainnot ja -ennusteet yli 4000 lentoasemalta (METAR- ja TAF-raportit).

Käytössä olevat sääasemat on merkitty karttaan keltaisilla ja punaisilla pisteillä.

Aseta hiiri pisteen päälle nähdäksesi sääaseman nimen.

Klikkaa sitten nähdäksesi säähavainnot ja -ennusteet.

Kartan vaihtaminen: klikkaa mustalla rastilla varustettuja vihreitä pisteitä, niin voit zoomata sisään; viivalla varustettua vihreää pistettä, niin voit zoomata ulos tai vihreitä nuolia, niin pääset viereisille kartoille.


METAR-TAF: